createdAt,value
2023-01-17T00:01:29.420Z,1.64
2023-01-17T00:04:14.634Z,1.73
2023-01-17T00:07:01.311Z,1.58
2023-01-17T00:09:46.785Z,1.64
2023-01-17T00:12:14.687Z,1.62
2023-01-17T00:14:42.515Z,1.66
2023-01-17T00:17:10.403Z,1.55
2023-01-17T00:19:55.680Z,1.53
2023-01-17T00:22:44.995Z,1.68
2023-01-17T00:25:31.419Z,1.68
2023-01-17T00:27:58.344Z,1.70
2023-01-17T00:30:26.020Z,1.82
2023-01-17T00:32:53.032Z,1.88
2023-01-17T00:35:21.509Z,1.67
2023-01-17T00:37:49.838Z,1.59
2023-01-17T00:40:16.753Z,1.59
2023-01-17T00:42:43.491Z,1.54
2023-01-17T00:45:29.124Z,1.45
2023-01-17T00:48:14.617Z,1.53
2023-01-17T00:51:00.028Z,1.51
2023-01-17T00:53:46.856Z,1.62
2023-01-17T00:56:32.374Z,1.39
2023-01-17T00:59:17.882Z,1.54
2023-01-17T01:02:03.393Z,1.49
2023-01-17T01:04:48.696Z,1.37
2023-01-17T01:07:34.283Z,1.43
2023-01-17T01:10:21.039Z,1.35
2023-01-17T01:13:06.496Z,1.29
2023-01-17T01:15:52.006Z,1.38
2023-01-17T01:18:37.442Z,1.14
2023-01-17T01:21:23.400Z,1.23
2023-01-17T01:24:09.116Z,1.34
2023-01-17T01:26:55.818Z,1.37
2023-01-17T01:29:41.283Z,1.32
2023-01-17T01:32:26.726Z,1.39
2023-01-17T01:34:54.576Z,1.36
2023-01-17T01:37:22.449Z,1.32
2023-01-17T01:39:50.304Z,1.37
2023-01-17T01:42:19.784Z,1.37
2023-01-17T01:44:49.992Z,1.39
2023-01-17T01:47:25.249Z,1.30
2023-01-17T01:49:53.833Z,1.30
2023-01-17T01:52:27.168Z,1.39
2023-01-17T01:55:02.237Z,1.55
2023-01-17T01:57:38.949Z,1.64
2023-01-17T02:00:11.712Z,1.27
2023-01-17T02:02:40.987Z,1.31
2023-01-17T02:05:12.121Z,1.34
2023-01-17T02:07:47.929Z,1.56
2023-01-17T02:10:15.949Z,1.56
2023-01-17T02:12:46.665Z,1.39
2023-01-17T02:15:14.613Z,1.34
2023-01-17T02:17:56.477Z,1.38
2023-01-17T02:20:52.849Z,1.54
2023-01-17T02:24:02.668Z,1.58
2023-01-17T02:26:54.237Z,1.64
2023-01-17T02:29:55.383Z,1.75
2023-01-17T02:32:38.621Z,1.89
2023-01-17T02:35:16.962Z,1.91
2023-01-17T02:37:57.317Z,1.89
2023-01-17T02:40:31.664Z,1.82
2023-01-17T02:43:05.596Z,1.87
2023-01-17T02:45:33.500Z,2.02
2023-01-17T02:48:02.718Z,1.91
2023-01-17T02:50:50.559Z,2.12
2023-01-17T02:53:34.108Z,2.14
2023-01-17T02:56:14.146Z,2.33
2023-01-17T02:59:00.705Z,2.28
2023-01-17T03:01:38.819Z,2.18
2023-01-17T03:04:16.252Z,2.39
2023-01-17T03:06:53.229Z,2.32
2023-01-17T03:09:23.101Z,2.38
2023-01-17T03:11:51.056Z,2.77
2023-01-17T03:14:18.933Z,2.75
2023-01-17T03:16:47.219Z,3.19
2023-01-17T03:19:16.483Z,2.84
2023-01-17T03:21:44.391Z,2.69
2023-01-17T03:24:12.263Z,2.67
2023-01-17T03:26:40.127Z,2.91
2023-01-17T03:29:07.965Z,2.83
2023-01-17T03:31:35.975Z,2.92
2023-01-17T03:34:03.839Z,3.11
2023-01-17T03:36:33.114Z,3.28
2023-01-17T03:39:02.993Z,2.66
2023-01-17T03:41:31.257Z,2.98
2023-01-17T03:43:59.084Z,3.31
2023-01-17T03:46:28.959Z,3.45
2023-01-17T03:48:57.041Z,3.30
2023-01-17T03:51:24.918Z,2.88
2023-01-17T03:53:54.316Z,3.10
2023-01-17T03:56:22.554Z,3.49
2023-01-17T03:58:51.505Z,3.85
2023-01-17T04:01:19.965Z,4.54
2023-01-17T04:03:47.838Z,4.45
2023-01-17T04:06:15.692Z,3.42
2023-01-17T04:08:46.204Z,3.12
2023-01-17T04:11:16.556Z,2.90
2023-01-17T04:13:49.353Z,2.84
2023-01-17T04:16:19.629Z,2.87
2023-01-17T04:18:49.255Z,2.59
2023-01-17T04:21:21.580Z,2.39
2023-01-17T04:23:55.849Z,2.47
2023-01-17T04:26:25.364Z,2.36
2023-01-17T04:28:53.289Z,2.45
2023-01-17T04:31:30.339Z,2.66
2023-01-17T04:33:58.238Z,2.45
2023-01-17T04:36:29.179Z,2.47
2023-01-17T04:38:57.071Z,2.80
2023-01-17T04:41:34.986Z,2.77
2023-01-17T04:44:45.229Z,2.69
2023-01-17T04:47:17.357Z,2.72
2023-01-17T04:49:56.360Z,2.79
2023-01-17T04:53:15.257Z,3.03
2023-01-17T04:55:46.689Z,3.34
2023-01-17T04:58:16.157Z,3.55
2023-01-17T05:00:44.203Z,3.77
2023-01-17T05:03:12.212Z,3.55
2023-01-17T05:05:40.214Z,3.71
2023-01-17T05:08:08.132Z,3.46
2023-01-17T05:10:36.411Z,4.06
2023-01-17T05:13:04.465Z,4.16
2023-01-17T05:15:34.101Z,4.78
2023-01-17T05:18:01.987Z,5.06
2023-01-17T05:20:29.899Z,5.43
2023-01-17T05:22:59.132Z,5.20
2023-01-17T05:25:29.413Z,5.52
2023-01-17T05:27:58.329Z,4.65
2023-01-17T05:30:26.545Z,3.62
2023-01-17T05:32:58.010Z,3.39
2023-01-17T05:35:28.599Z,3.45
2023-01-17T05:37:57.482Z,3.81
2023-01-17T05:40:27.569Z,3.68
2023-01-17T05:42:57.769Z,4.04
2023-01-17T05:45:27.941Z,4.19
2023-01-17T05:47:58.434Z,4.81
2023-01-17T05:50:28.379Z,5.72
2023-01-17T05:52:58.977Z,7.71
2023-01-17T05:55:29.046Z,7.56
2023-01-17T05:57:57.093Z,7.04
2023-01-17T06:00:25.786Z,5.20
2023-01-17T06:02:55.761Z,5.43
2023-01-17T06:05:26.306Z,8.57
2023-01-17T06:07:54.760Z,8.70
2023-01-17T06:10:23.587Z,7.02
2023-01-17T06:12:51.674Z,6.94
2023-01-17T06:15:19.919Z,5.41
2023-01-17T06:17:50.218Z,6.28
2023-01-17T06:20:18.413Z,6.08
2023-01-17T06:22:47.654Z,4.89
2023-01-17T06:25:15.710Z,5.48
2023-01-17T06:27:43.508Z,6.83
2023-01-17T06:30:12.549Z,6.68
2023-01-17T06:32:40.415Z,5.88
2023-01-17T06:35:08.670Z,3.72
2023-01-17T06:37:36.537Z,3.54
2023-01-17T06:40:07.034Z,2.99
2023-01-17T06:42:35.330Z,2.80
2023-01-17T06:45:03.180Z,2.54
2023-01-17T06:47:31.122Z,2.89
2023-01-17T06:50:00.188Z,3.04
2023-01-17T06:52:28.030Z,3.26
2023-01-17T06:54:55.882Z,3.16
2023-01-17T06:57:25.207Z,3.35
2023-01-17T06:59:54.970Z,3.09
2023-01-17T07:02:22.830Z,3.44
2023-01-17T07:04:50.767Z,4.82
2023-01-17T07:07:18.651Z,5.52
2023-01-17T07:09:46.520Z,5.38
2023-01-17T07:12:14.954Z,5.47
2023-01-17T07:14:44.229Z,5.11
2023-01-17T07:17:12.339Z,4.97
2023-01-17T07:19:40.208Z,4.29
2023-01-17T07:22:08.126Z,4.11
2023-01-17T07:24:37.501Z,3.83
2023-01-17T07:27:05.419Z,3.60
2023-01-17T07:29:33.369Z,3.41
2023-01-17T07:32:03.281Z,3.93
2023-01-17T07:34:31.202Z,4.83
2023-01-17T07:36:59.061Z,4.98
2023-01-17T07:39:27.804Z,4.50
2023-01-17T07:41:55.982Z,3.77
2023-01-17T07:44:23.893Z,3.68
2023-01-17T07:46:51.798Z,4.19
2023-01-17T07:49:21.054Z,4.35
2023-01-17T07:51:48.969Z,4.30
2023-01-17T07:54:16.828Z,4.24
2023-01-17T07:56:47.117Z,3.71
2023-01-17T07:59:15.033Z,3.59
2023-01-17T08:01:43.130Z,3.51
2023-01-17T08:04:11.701Z,3.46
2023-01-17T08:06:47.470Z,3.61
2023-01-17T08:09:15.381Z,3.57
2023-01-17T08:11:43.318Z,3.78
2023-01-17T08:14:11.215Z,4.83
2023-01-17T08:16:40.127Z,6.04
2023-01-17T08:19:08.018Z,6.33
2023-01-17T08:21:35.870Z,5.59
2023-01-17T08:24:05.860Z,5.61
2023-01-17T08:26:33.757Z,5.66
2023-01-17T08:29:02.437Z,5.29
2023-01-17T08:31:33.408Z,6.90
2023-01-17T08:34:01.755Z,6.53
2023-01-17T08:36:31.504Z,3.59
2023-01-17T08:39:00.016Z,2.69
2023-01-17T08:41:29.227Z,2.38
2023-01-17T08:43:57.163Z,2.05
2023-01-17T08:46:25.318Z,1.80
2023-01-17T08:48:55.742Z,2.27
2023-01-17T08:51:24.879Z,2.79
2023-01-17T08:53:52.802Z,2.97
2023-01-17T08:56:20.866Z,2.82
2023-01-17T08:58:50.701Z,2.84
2023-01-17T09:01:18.852Z,2.88
2023-01-17T09:03:49.203Z,3.09
2023-01-17T09:06:17.549Z,3.18
2023-01-17T09:08:46.940Z,14.34
2023-01-17T09:11:17.817Z,7.62
2023-01-17T09:13:45.775Z,18.63
2023-01-17T09:16:15.127Z,21.43
2023-01-17T09:18:43.017Z,14.01
2023-01-17T09:21:11.929Z,11.14
2023-01-17T09:23:39.817Z,8.37
2023-01-17T09:26:07.754Z,6.42
2023-01-17T09:28:40.932Z,9.74
2023-01-17T09:31:09.353Z,10.21
2023-01-17T09:33:41.074Z,10.50
2023-01-17T09:36:09.659Z,8.80
2023-01-17T09:38:37.874Z,6.95
2023-01-17T09:41:22.797Z,4.33
2023-01-17T09:43:56.922Z,3.16
2023-01-17T09:46:30.568Z,3.24
2023-01-17T09:49:06.053Z,3.07
2023-01-17T09:51:34.154Z,3.63
2023-01-17T09:54:02.892Z,2.97
2023-01-17T09:56:36.771Z,2.37
2023-01-17T09:59:32.222Z,2.24
2023-01-17T10:02:26.335Z,2.81
2023-01-17T10:05:20.162Z,2.68
2023-01-17T10:08:09.591Z,2.49
2023-01-17T10:10:43.175Z,3.02
2023-01-17T10:13:28.361Z,2.98
2023-01-17T10:16:11.668Z,3.34
2023-01-17T10:19:04.527Z,3.72
2023-01-17T10:22:04.208Z,3.13
2023-01-17T10:24:54.902Z,3.46
2023-01-17T10:27:29.974Z,3.36
2023-01-17T10:29:58.307Z,3.80
2023-01-17T10:32:33.960Z,4.00
2023-01-17T10:35:14.208Z,4.06
2023-01-17T10:37:46.522Z,4.50
2023-01-17T10:40:24.266Z,5.04
2023-01-17T10:43:02.263Z,4.52
2023-01-17T10:45:41.439Z,4.19
2023-01-17T10:48:17.065Z,4.69
2023-01-17T10:50:57.668Z,4.76
2023-01-17T10:53:46.728Z,5.31
2023-01-17T10:56:19.403Z,4.69
2023-01-17T10:58:50.206Z,3.94
2023-01-17T11:01:21.663Z,4.12
2023-01-17T11:03:53.769Z,4.46
2023-01-17T11:06:24.009Z,4.49
2023-01-17T11:08:55.523Z,7.03
2023-01-17T11:11:30.168Z,5.08
2023-01-17T11:14:01.517Z,5.14
2023-01-17T11:16:32.519Z,4.49
2023-01-17T11:19:14.768Z,3.95
2023-01-17T11:21:53.105Z,4.30
2023-01-17T11:24:34.120Z,4.50
2023-01-17T11:27:02.757Z,3.89
2023-01-17T11:29:36.794Z,3.92
2023-01-17T11:32:30.969Z,3.85
2023-01-17T11:35:25.475Z,3.68
2023-01-17T11:37:59.792Z,3.58
2023-01-17T11:40:33.706Z,3.79
2023-01-17T11:43:23.014Z,3.79
2023-01-17T11:46:17.116Z,3.40
2023-01-17T11:48:51.044Z,3.09
2023-01-17T11:51:25.347Z,3.45
2023-01-17T11:53:56.202Z,3.53
2023-01-17T11:56:34.052Z,3.73
2023-01-17T11:59:29.952Z,3.38
2023-01-17T12:02:33.582Z,3.70
2023-01-17T12:05:18.587Z,5.09
2023-01-17T12:08:01.451Z,4.47
2023-01-17T12:10:38.360Z,3.53
2023-01-17T12:13:37.685Z,3.26
2023-01-17T12:16:32.897Z,3.57
2023-01-17T12:19:18.480Z,2.87
2023-01-17T12:22:02.621Z,3.74
2023-01-17T12:24:53.106Z,3.23
2023-01-17T12:27:32.201Z,2.84
2023-01-17T12:30:30.783Z,2.93
2023-01-17T12:33:19.661Z,4.18
2023-01-17T12:35:54.530Z,4.97
2023-01-17T12:38:32.824Z,5.55
2023-01-17T12:41:07.125Z,4.08
2023-01-17T12:43:38.473Z,3.77
2023-01-17T12:46:20.743Z,3.41
2023-01-17T12:48:55.255Z,2.95
2023-01-17T12:51:30.084Z,3.65
2023-01-17T12:54:06.449Z,3.12
2023-01-17T12:56:42.347Z,2.78
2023-01-17T12:59:20.762Z,2.82
2023-01-17T13:01:57.685Z,2.66
2023-01-17T13:04:30.707Z,2.83
2023-01-17T13:07:13.558Z,4.39
2023-01-17T13:09:49.266Z,6.82
2023-01-17T13:12:21.124Z,4.41
2023-01-17T13:14:50.320Z,3.29
2023-01-17T13:17:35.701Z,3.66
2023-01-17T13:20:15.839Z,2.45
2023-01-17T13:22:46.843Z,2.41
2023-01-17T13:25:33.793Z,2.60
2023-01-17T13:28:18.828Z,2.23
2023-01-17T13:31:05.965Z,2.28
2023-01-17T13:33:50.394Z,2.07
2023-01-17T13:36:40.501Z,2.11
2023-01-17T13:39:39.139Z,2.23
2023-01-17T13:42:18.943Z,2.03
2023-01-17T13:44:47.845Z,2.09
2023-01-17T13:47:40.747Z,2.24
2023-01-17T13:50:46.032Z,2.50
2023-01-17T13:53:56.800Z,2.49
2023-01-17T13:56:37.455Z,2.52
2023-01-17T13:59:27.239Z,2.36
2023-01-17T14:01:56.360Z,2.48
2023-01-17T14:04:26.399Z,2.27
2023-01-17T14:06:59.744Z,2.26
2023-01-17T14:09:38.378Z,2.78
2023-01-17T14:12:26.719Z,3.19
2023-01-17T14:15:00.580Z,2.67
2023-01-17T14:17:49.405Z,2.74
2023-01-17T14:21:05.506Z,2.53
2023-01-17T14:23:48.113Z,2.76
2023-01-17T14:26:36.644Z,9.14
2023-01-17T14:29:57.638Z,3.15
2023-01-17T14:32:31.427Z,2.33
2023-01-17T14:35:00.051Z,2.10
2023-01-17T14:37:39.484Z,2.28
2023-01-17T14:40:20.655Z,3.35
2023-01-17T14:42:55.278Z,4.30
2023-01-17T14:45:28.924Z,2.24
2023-01-17T14:48:00.772Z,2.23
2023-01-17T14:50:31.078Z,2.40
2023-01-17T14:53:18.913Z,2.24
2023-01-17T14:55:59.979Z,2.63
2023-01-17T14:58:30.116Z,2.56
2023-01-17T15:01:01.409Z,1.91
2023-01-17T15:03:34.770Z,2.45
2023-01-17T15:06:12.416Z,1.99
2023-01-17T15:08:40.694Z,5.91
2023-01-17T15:11:17.806Z,12.55
2023-01-17T15:13:50.634Z,5.82
2023-01-17T15:16:22.413Z,6.75
2023-01-17T15:18:52.950Z,9.05
2023-01-17T15:21:24.135Z,4.77
2023-01-17T15:23:56.692Z,6.44
2023-01-17T15:26:27.511Z,5.56
2023-01-17T15:29:08.114Z,4.93
2023-01-17T15:31:43.118Z,3.84
2023-01-17T15:34:28.047Z,3.39
2023-01-17T15:36:58.539Z,4.48
2023-01-17T15:39:30.229Z,4.41
2023-01-17T15:42:00.254Z,7.34
2023-01-17T15:44:46.881Z,9.66
2023-01-17T15:47:29.486Z,11.98
2023-01-17T15:50:00.800Z,5.88
2023-01-17T15:52:29.126Z,5.19
2023-01-17T15:55:01.489Z,23.07
2023-01-17T15:57:36.894Z,15.59
2023-01-17T16:00:08.766Z,10.14
2023-01-17T16:02:43.191Z,7.51
2023-01-17T16:05:41.810Z,7.87
2023-01-17T16:08:27.106Z,4.98
2023-01-17T16:10:58.544Z,4.08
2023-01-17T16:13:26.499Z,3.20
2023-01-17T16:15:54.549Z,3.91
2023-01-17T16:18:25.860Z,3.26
2023-01-17T16:21:01.103Z,3.15
2023-01-17T16:23:29.771Z,4.11
2023-01-17T16:25:57.784Z,6.33
2023-01-17T16:28:25.623Z,8.80
2023-01-17T16:30:54.348Z,14.68
2023-01-17T16:33:22.308Z,24.10
2023-01-17T16:35:51.192Z,14.05
2023-01-17T16:38:20.842Z,7.18
2023-01-17T16:40:49.618Z,6.97
2023-01-17T16:43:19.201Z,10.73
2023-01-17T16:45:49.047Z,12.51
2023-01-17T16:48:19.415Z,9.87
2023-01-17T16:50:50.652Z,7.69
2023-01-17T16:53:24.635Z,10.42
2023-01-17T16:55:56.261Z,13.69
2023-01-17T16:58:24.558Z,11.69
2023-01-17T17:00:52.597Z,10.02
2023-01-17T17:03:22.276Z,7.74
2023-01-17T17:05:57.241Z,6.21
2023-01-17T17:08:28.694Z,5.30
2023-01-17T17:11:06.989Z,6.57
2023-01-17T17:13:36.105Z,4.59
2023-01-17T17:16:10.694Z,7.88
2023-01-17T17:18:38.901Z,5.22
2023-01-17T17:21:06.864Z,5.08
2023-01-17T17:23:36.173Z,5.27
2023-01-17T17:26:04.063Z,4.68
2023-01-17T17:28:32.333Z,5.12
2023-01-17T17:31:09.068Z,4.99
2023-01-17T17:33:36.995Z,3.90
2023-01-17T17:36:06.520Z,4.03
2023-01-17T17:38:36.558Z,4.70
2023-01-17T17:41:09.691Z,5.25
2023-01-17T17:43:40.466Z,5.20
2023-01-17T17:46:08.863Z,4.90
2023-01-17T17:48:37.130Z,5.00
2023-01-17T17:51:06.029Z,4.13
2023-01-17T17:53:34.006Z,4.14
2023-01-17T17:56:07.779Z,3.83
2023-01-17T17:58:36.501Z,2.97
2023-01-17T18:01:06.206Z,3.35
2023-01-17T18:03:34.584Z,3.85
2023-01-17T18:06:04.885Z,4.15
2023-01-17T18:08:33.776Z,3.57
2023-01-17T18:11:03.103Z,3.36
2023-01-17T18:13:33.832Z,3.70
2023-01-17T18:16:07.612Z,4.34
2023-01-17T18:18:36.964Z,3.65
2023-01-17T18:21:11.268Z,3.08
2023-01-17T18:23:41.756Z,2.77
2023-01-17T18:26:18.011Z,5.84
2023-01-17T18:28:47.442Z,9.64
2023-01-17T18:31:15.393Z,3.85
2023-01-17T18:33:43.353Z,3.59
2023-01-17T18:36:13.623Z,13.43
2023-01-17T18:38:43.940Z,16.74
2023-01-17T18:41:14.842Z,17.55
2023-01-17T18:43:42.905Z,6.21
2023-01-17T18:46:13.764Z,4.80
2023-01-17T18:48:42.591Z,5.30
2023-01-17T18:51:13.284Z,5.46
2023-01-17T18:53:42.845Z,8.73
2023-01-17T18:56:13.381Z,11.78
2023-01-17T18:58:43.893Z,12.66
2023-01-17T19:01:16.266Z,6.33
2023-01-17T19:03:46.505Z,6.68
2023-01-17T19:06:17.908Z,5.13
2023-01-17T19:08:46.753Z,4.92
2023-01-17T19:11:14.621Z,5.19
2023-01-17T19:13:42.768Z,4.78
2023-01-17T19:16:16.833Z,5.55
2023-01-17T19:18:44.727Z,6.10
2023-01-17T19:21:15.355Z,7.35
2023-01-17T19:23:44.396Z,6.02
2023-01-17T19:26:16.361Z,5.80
2023-01-17T19:28:46.699Z,5.58
2023-01-17T19:31:20.416Z,5.40
2023-01-17T19:33:49.885Z,7.97
2023-01-17T19:36:20.039Z,6.98
2023-01-17T19:39:03.363Z,6.04
2023-01-17T19:41:33.831Z,7.32
2023-01-17T19:44:03.253Z,7.31
2023-01-17T19:46:33.394Z,6.23
2023-01-17T19:49:02.480Z,5.72
2023-01-17T19:51:30.365Z,5.71
2023-01-17T19:54:01.237Z,7.41
2023-01-17T19:56:30.581Z,8.78
2023-01-17T19:59:01.323Z,8.01
2023-01-17T20:01:33.246Z,5.97
2023-01-17T20:04:02.996Z,4.75
2023-01-17T20:06:34.279Z,4.84
2023-01-17T20:09:02.902Z,4.84
2023-01-17T20:11:30.804Z,5.60
2023-01-17T20:14:00.340Z,6.50
2023-01-17T20:16:30.590Z,6.83
2023-01-17T20:19:02.552Z,6.32
2023-01-17T20:21:32.113Z,5.49
2023-01-17T20:24:03.259Z,5.64
2023-01-17T20:26:35.535Z,5.93
2023-01-17T20:29:10.624Z,6.16
2023-01-17T20:31:40.992Z,5.36
2023-01-17T20:34:12.632Z,5.68
2023-01-17T20:36:42.154Z,5.49
2023-01-17T20:39:12.384Z,6.65
2023-01-17T20:41:42.410Z,5.78
2023-01-17T20:44:15.080Z,6.23
2023-01-17T20:46:44.035Z,6.95
2023-01-17T20:49:19.943Z,9.14
2023-01-17T20:51:48.329Z,6.99
2023-01-17T20:54:18.950Z,7.25
2023-01-17T20:56:48.365Z,7.36
2023-01-17T20:59:18.620Z,8.40
2023-01-17T21:01:47.258Z,8.94
2023-01-17T21:04:19.048Z,7.46
2023-01-17T21:06:47.566Z,7.36
2023-01-17T21:09:17.279Z,6.66
2023-01-17T21:11:45.266Z,6.59
2023-01-17T21:14:13.447Z,6.46
2023-01-17T21:16:42.181Z,6.75
2023-01-17T21:19:12.068Z,6.47
2023-01-17T21:21:41.585Z,6.84
2023-01-17T21:25:20.424Z,6.67
2023-01-17T21:27:06.294Z,6.58
2023-01-17T21:29:42.381Z,6.34
2023-01-17T21:32:10.431Z,6.40
2023-01-17T21:34:38.438Z,6.42
2023-01-17T21:37:07.702Z,6.21
2023-01-17T21:39:35.662Z,6.60
2023-01-17T21:42:05.014Z,6.71
2023-01-17T21:44:42.273Z,6.52
2023-01-17T21:47:20.613Z,6.42
2023-01-17T21:49:48.583Z,6.49
2023-01-17T21:52:20.747Z,6.26
2023-01-17T21:55:06.594Z,5.79
2023-01-17T21:57:48.452Z,5.81
2023-01-17T22:00:17.262Z,5.38
2023-01-17T22:02:46.674Z,5.40
2023-01-17T22:06:05.536Z,5.43
2023-01-17T22:08:15.283Z,5.72
2023-01-17T22:10:46.399Z,5.73
2023-01-17T22:13:15.368Z,5.69
2023-01-17T22:15:43.927Z,7.46
2023-01-17T22:18:12.260Z,7.90
2023-01-17T22:20:41.578Z,7.31
2023-01-17T22:23:11.819Z,7.66
2023-01-17T22:25:39.723Z,7.10
2023-01-17T22:28:07.641Z,7.20
2023-01-17T22:30:36.692Z,7.46
2023-01-17T22:33:04.773Z,8.68
2023-01-17T22:35:32.697Z,8.60
2023-01-17T22:38:01.572Z,8.14
2023-01-17T22:40:32.605Z,9.33
2023-01-17T22:43:00.609Z,16.88
2023-01-17T22:45:29.029Z,14.42
2023-01-17T22:47:56.874Z,14.29
2023-01-17T22:50:24.799Z,10.85
2023-01-17T22:52:52.693Z,8.48
2023-01-17T22:55:21.526Z,8.43
2023-01-17T22:57:50.780Z,7.73
2023-01-17T23:00:19.241Z,6.86
2023-01-17T23:02:47.130Z,6.37
2023-01-17T23:05:15.040Z,6.45
2023-01-17T23:07:46.459Z,6.05
2023-01-17T23:10:37.012Z,6.31
2023-01-17T23:13:09.754Z,6.53
2023-01-17T23:15:56.625Z,7.31
2023-01-17T23:18:42.278Z,8.22
2023-01-17T23:21:10.077Z,10.85
2023-01-17T23:23:37.925Z,11.24
2023-01-17T23:26:05.969Z,12.30
2023-01-17T23:28:34.247Z,12.68
2023-01-17T23:31:05.020Z,13.44
2023-01-17T23:33:33.361Z,14.62
2023-01-17T23:36:01.544Z,15.94
2023-01-17T23:38:33.997Z,17.85
2023-01-17T23:41:22.408Z,18.26
2023-01-17T23:43:55.422Z,17.98
2023-01-17T23:46:25.437Z,18.74
2023-01-17T23:48:54.810Z,17.67
2023-01-17T23:51:22.822Z,18.09
2023-01-17T23:53:53.396Z,17.58
2023-01-17T23:56:24.742Z,18.21
2023-01-17T23:58:53.973Z,18.99
